Portada
METAR-TAF:

METAR-TAF

Aeroports :

Pyongyang, Corea del Nord

latitud: 39-02N, longitud: 125-47E, altitud: 36 m

METAR: manca

Hora: 15:18 (06:48 UTC)

Pronòstic

L'informe es va fer fa 3 hores i 18 minuts, a les 03:30 UTC
Pronòstic vàlid del 19 a les 06 UTC al 20 a les 06 UTC
Vent 6 kt amb direcció variable
Visibilitat 10 km o més
sense núvols per sota de 1500 mi sense presència de cumulonimbus.
Temporalment
l' 19 a les 20 UTC al 19 a les 24 UTC
Visibilitat: 0800 m
boira

TAF: ZKPY 190330Z 1906/2006 32005MPS 9999 BKN020 TX22/1906Z TN08/1921Z BCMEG 1911/1912 VRB03MPS CAVOK TEMPO 1920/1924 0800 FG

Observacions i pronòstics meteorològics de més de 4000 aeroports (METAR i TAF).

Les estacions disponibles són els punts grocs i vermells al mapa.

Posi el ratolí al punt desitjat per veure el nom de l'estació.

Feu clic per veure les observacions i els pronòstics meteorològics.

Per canviar el mapa: feu clic els botons verds amb una creu de color negre per apropar; al botó verd amb un guió per allunyar la imatge; o en les fletxes verdes per a mapes adjacents.


METAR-TAF: